Little America, Illinois
Current Conditions -  °F | °C
As of 4:55 AM on Wednesday 26 Nov 2014 (Local Time) from KMQB Reporting Station
Scattered Clouds Scattered Clouds  
Wind Chill: 18°   Ceiling: Unl
Heat Index: 26°   Visibility: 10mi
Dew Point: 25°   Wind: 8mph
Humidity: 95%   Direction: 130°SE
Pressure: 30.08"   Gusts: NA
Location:  40.3324°N, 90.1539°W
Report Text: KMQB 261055Z AUTO 13007KT 10SM SCT120 M03/M04 A3008 RMK AO2 T10331040
Loading
Personal Weather Stations






























Interactive Weather Map New forecast layout! Learn more

10-Day Weather Forecast

Advertisements
Track Severe Weather on mobile